sensor_id;sensor_type;location;lat;lon;timestamp;P1;durP1;ratioP1;P2;durP2;ratioP2
48975;SDS011;34791;52.752;8.346;2023-02-28T00:00:09;14.77;;;6.37;;
48975;SDS011;34791;52.752;8.346;2023-02-28T00:02:36;13.33;;;6.10;;
48975;SDS011;34791;52.752;8.346;2023-02-28T00:05:06;12.17;;;6.70;;
48975;SDS011;34791;52.752;8.346;2023-02-28T00:07:33;12.10;;;6.40;;
48975;SDS011;34791;52.752;8.346;2023-02-28T00:09:58;13.70;;;6.83;;
48975;SDS011;34791;52.752;8.346;2023-02-28T00:12:24;13.10;;;6.40;;
48975;SDS011;34791;52.752;8.346;2023-02-28T00:14:49;13.17;;;6.57;;
48975;SDS011;34791;52.752;8.346;2023-02-28T00:17:15;13.27;;;6.80;;
48975;SDS011;34791;52.752;8.346;2023-02-28T00:19:43;13.27;;;6.93;;
48975;SDS011;34791;52.752;8.346;2023-02-28T00:22:08;11.93;;;7.00;;
48975;SDS011;34791;52.752;8.346;2023-02-28T00:24:34;18.60;;;7.07;;
48975;SDS011;34791;52.752;8.346;2023-02-28T00:26:59;14.43;;;7.03;;
48975;SDS011;34791;52.752;8.346;2023-02-28T00:29:24;12.10;;;6.83;;
48975;SDS011;34791;52.752;8.346;2023-02-28T00:31:50;14.87;;;6.47;;
48975;SDS011;34791;52.752;8.346;2023-02-28T00:34:15;13.73;;;6.07;;
48975;SDS011;34791;52.752;8.346;2023-02-28T00:36:41;12.13;;;6.67;;
48975;SDS011;34791;52.752;8.346;2023-02-28T00:39:10;14.73;;;6.97;;
48975;SDS011;34791;52.752;8.346;2023-02-28T00:41:36;14.40;;;7.23;;
48975;SDS011;34791;52.752;8.346;2023-02-28T00:44:01;13.80;;;7.20;;
48975;SDS011;34791;52.752;8.346;2023-02-28T00:46:26;12.90;;;7.33;;
48975;SDS011;34791;52.752;8.346;2023-02-28T00:48:52;14.97;;;7.10;;
48975;SDS011;34791;52.752;8.346;2023-02-28T00:51:17;13.43;;;7.10;;
48975;SDS011;34791;52.752;8.346;2023-02-28T00:53:42;11.93;;;7.23;;
48975;SDS011;34791;52.752;8.346;2023-02-28T00:56:08;12.10;;;6.63;;
48975;SDS011;34791;52.752;8.346;2023-02-28T00:58:33;13.13;;;6.93;;
48975;SDS011;34791;52.752;8.346;2023-02-28T01:00:59;12.67;;;7.40;;
48975;SDS011;34791;52.752;8.346;2023-02-28T01:03:25;14.30;;;7.20;;
48975;SDS011;34791;52.752;8.346;2023-02-28T01:05:50;13.23;;;7.20;;
48975;SDS011;34791;52.752;8.346;2023-02-28T01:08:17;16.13;;;7.70;;
48975;SDS011;34791;52.752;8.346;2023-02-28T01:10:43;16.80;;;7.77;;
48975;SDS011;34791;52.752;8.346;2023-02-28T01:13:09;13.00;;;7.27;;
48975;SDS011;34791;52.752;8.346;2023-02-28T01:15:35;16.27;;;7.00;;
48975;SDS011;34791;52.752;8.346;2023-02-28T01:18:00;14.03;;;7.53;;
48975;SDS011;34791;52.752;8.346;2023-02-28T01:20:26;16.80;;;7.73;;
48975;SDS011;34791;52.752;8.346;2023-02-28T01:22:51;14.93;;;8.50;;
48975;SDS011;34791;52.752;8.346;2023-02-28T01:25:16;15.70;;;8.03;;
48975;SDS011;34791;52.752;8.346;2023-02-28T01:27:42;14.33;;;7.97;;
48975;SDS011;34791;52.752;8.346;2023-02-28T01:30:08;15.63;;;8.07;;
48975;SDS011;34791;52.752;8.346;2023-02-28T01:32:35;12.87;;;7.43;;
48975;SDS011;34791;52.752;8.346;2023-02-28T01:35:00;15.80;;;8.50;;
48975;SDS011;34791;52.752;8.346;2023-02-28T01:37:26;15.27;;;8.20;;
48975;SDS011;34791;52.752;8.346;2023-02-28T01:39:52;14.77;;;9.03;;
48975;SDS011;34791;52.752;8.346;2023-02-28T01:42:17;22.77;;;9.80;;
48975;SDS011;34791;52.752;8.346;2023-02-28T01:47:32;17.37;;;8.77;;
48975;SDS011;34791;52.752;8.346;2023-02-28T01:50:04;18.13;;;8.80;;
48975;SDS011;34791;52.752;8.346;2023-02-28T01:52:34;21.80;;;9.90;;
48975;SDS011;34791;52.752;8.346;2023-02-28T01:55:01;19.27;;;9.33;;
48975;SDS011;34791;52.752;8.346;2023-02-28T01:57:30;21.03;;;9.93;;
48975;SDS011;34791;52.752;8.346;2023-02-28T02:00:12;19.50;;;9.97;;
48975;SDS011;34791;52.752;8.346;2023-02-28T02:02:51;18.63;;;9.63;;
48975;SDS011;34791;52.752;8.346;2023-02-28T02:05:23;18.60;;;9.90;;
48975;SDS011;34791;52.752;8.346;2023-02-28T02:08:32;20.37;;;10.40;;
48975;SDS011;34791;52.752;8.346;2023-02-28T02:10:43;17.88;;;9.18;;
48975;SDS011;34791;52.752;8.346;2023-02-28T02:18:40;18.93;;;10.00;;
48975;SDS011;34791;52.752;8.346;2023-02-28T02:27:17;21.97;;;10.17;;
48975;SDS011;34791;52.752;8.346;2023-02-28T02:41:18;19.23;;;10.50;;
48975;SDS011;34791;52.752;8.346;2023-02-28T02:46:27;21.27;;;9.93;;
48975;SDS011;34791;52.752;8.346;2023-02-28T02:49:31;20.10;;;9.43;;
48975;SDS011;34791;52.752;8.346;2023-02-28T02:52:06;19.03;;;10.60;;
48975;SDS011;34791;52.752;8.346;2023-02-28T02:54:38;22.13;;;10.43;;
48975;SDS011;34791;52.752;8.346;2023-02-28T02:57:11;19.03;;;10.77;;
48975;SDS011;34791;52.752;8.346;2023-02-28T02:59:42;26.57;;;12.40;;
48975;SDS011;34791;52.752;8.346;2023-02-28T03:02:10;24.50;;;12.40;;
48975;SDS011;34791;52.752;8.346;2023-02-28T03:04:42;24.23;;;12.82;;
48975;SDS011;34791;52.752;8.346;2023-02-28T03:07:11;25.58;;;12.82;;
48975;SDS011;34791;52.752;8.346;2023-02-28T03:09:36;23.97;;;13.30;;
48975;SDS011;34791;52.752;8.346;2023-02-28T03:12:02;19.00;;;10.13;;
48975;SDS011;34791;52.752;8.346;2023-02-28T03:20:05;20.37;;;10.63;;
48975;SDS011;34791;52.752;8.346;2023-02-28T03:30:30;20.35;;;11.95;;
48975;SDS011;34791;52.752;8.346;2023-02-28T03:33:20;22.27;;;10.70;;
48975;SDS011;34791;52.752;8.346;2023-02-28T03:35:54;18.17;;;10.93;;
48975;SDS011;34791;52.752;8.346;2023-02-28T03:41:22;17.23;;;9.33;;
48975;SDS011;34791;52.752;8.346;2023-02-28T03:43:57;18.67;;;10.40;;
48975;SDS011;34791;52.752;8.346;2023-02-28T03:46:58;16.83;;;9.70;;
48975;SDS011;34791;52.752;8.346;2023-02-28T03:49:35;17.40;;;10.00;;
48975;SDS011;34791;52.752;8.346;2023-02-28T03:52:35;18.83;;;10.03;;
48975;SDS011;34791;52.752;8.346;2023-02-28T03:55:08;17.67;;;9.43;;
48975;SDS011;34791;52.752;8.346;2023-02-28T03:57:43;16.93;;;8.90;;
48975;SDS011;34791;52.752;8.346;2023-02-28T04:00:23;14.45;;;8.77;;
48975;SDS011;34791;52.752;8.346;2023-02-28T04:02:54;15.03;;;8.90;;
48975;SDS011;34791;52.752;8.346;2023-02-28T04:05:20;15.90;;;8.83;;
48975;SDS011;34791;52.752;8.346;2023-02-28T04:07:46;16.23;;;8.30;;
48975;SDS011;34791;52.752;8.346;2023-02-28T04:10:13;14.57;;;8.63;;
48975;SDS011;34791;52.752;8.346;2023-02-28T04:12:39;15.67;;;8.60;;
48975;SDS011;34791;52.752;8.346;2023-02-28T04:15:05;16.47;;;8.33;;
48975;SDS011;34791;52.752;8.346;2023-02-28T04:17:31;17.23;;;8.97;;
48975;SDS011;34791;52.752;8.346;2023-02-28T04:19:56;16.97;;;9.93;;
48975;SDS011;34791;52.752;8.346;2023-02-28T04:22:22;19.67;;;9.70;;
48975;SDS011;34791;52.752;8.346;2023-02-28T04:24:51;17.50;;;9.20;;
48975;SDS011;34791;52.752;8.346;2023-02-28T04:27:18;18.07;;;9.50;;
48975;SDS011;34791;52.752;8.346;2023-02-28T04:29:44;14.33;;;9.10;;
48975;SDS011;34791;52.752;8.346;2023-02-28T04:32:09;15.07;;;9.63;;
48975;SDS011;34791;52.752;8.346;2023-02-28T04:34:35;19.43;;;9.40;;
48975;SDS011;34791;52.752;8.346;2023-02-28T04:37:01;15.67;;;9.53;;
48975;SDS011;34791;52.752;8.346;2023-02-28T04:39:28;21.13;;;9.67;;
48975;SDS011;34791;52.752;8.346;2023-02-28T04:41:54;15.83;;;8.93;;
48975;SDS011;34791;52.752;8.346;2023-02-28T04:44:20;18.37;;;8.67;;
48975;SDS011;34791;52.752;8.346;2023-02-28T04:46:47;15.30;;;8.93;;
48975;SDS011;34791;52.752;8.346;2023-02-28T04:49:13;16.83;;;9.37;;
48975;SDS011;34791;52.752;8.346;2023-02-28T04:51:39;18.40;;;10.40;;
48975;SDS011;34791;52.752;8.346;2023-02-28T04:54:05;18.73;;;9.30;;
48975;SDS011;34791;52.752;8.346;2023-02-28T04:56:33;18.67;;;10.30;;
48975;SDS011;34791;52.752;8.346;2023-02-28T04:58:59;22.00;;;9.47;;
48975;SDS011;34791;52.752;8.346;2023-02-28T05:01:26;20.60;;;9.43;;
48975;SDS011;34791;52.752;8.346;2023-02-28T05:03:55;17.23;;;9.80;;
48975;SDS011;34791;52.752;8.346;2023-02-28T05:06:22;15.70;;;10.10;;
48975;SDS011;34791;52.752;8.346;2023-02-28T05:08:50;22.57;;;10.80;;
48975;SDS011;34791;52.752;8.346;2023-02-28T05:13:43;23.53;;;11.80;;
48975;SDS011;34791;52.752;8.346;2023-02-28T05:16:09;23.33;;;12.20;;
48975;SDS011;34791;52.752;8.346;2023-02-28T05:18:37;24.10;;;12.70;;
48975;SDS011;34791;52.752;8.346;2023-02-28T05:21:03;19.27;;;11.57;;
48975;SDS011;34791;52.752;8.346;2023-02-28T05:23:28;26.57;;;12.73;;
48975;SDS011;34791;52.752;8.346;2023-02-28T05:25:54;22.10;;;12.70;;
48975;SDS011;34791;52.752;8.346;2023-02-28T05:28:20;24.50;;;13.27;;
48975;SDS011;34791;52.752;8.346;2023-02-28T05:30:45;22.80;;;13.93;;
48975;SDS011;34791;52.752;8.346;2023-02-28T05:33:12;24.07;;;13.93;;
48975;SDS011;34791;52.752;8.346;2023-02-28T05:35:41;26.40;;;15.70;;
48975;SDS011;34791;52.752;8.346;2023-02-28T05:38:10;26.17;;;16.87;;
48975;SDS011;34791;52.752;8.346;2023-02-28T05:40:35;30.90;;;16.40;;
48975;SDS011;34791;52.752;8.346;2023-02-28T05:43:04;35.70;;;19.97;;
48975;SDS011;34791;52.752;8.346;2023-02-28T05:45:29;35.53;;;20.60;;
48975;SDS011;34791;52.752;8.346;2023-02-28T05:47:55;40.67;;;21.93;;
48975;SDS011;34791;52.752;8.346;2023-02-28T05:50:20;41.50;;;23.10;;
48975;SDS011;34791;52.752;8.346;2023-02-28T05:52:52;40.17;;;23.70;;
48975;SDS011;34791;52.752;8.346;2023-02-28T05:55:17;36.90;;;22.77;;
48975;SDS011;34791;52.752;8.346;2023-02-28T05:57:43;29.37;;;16.57;;
48975;SDS011;34791;52.752;8.346;2023-02-28T06:00:09;30.53;;;16.60;;
48975;SDS011;34791;52.752;8.346;2023-02-28T06:02:35;30.40;;;17.73;;
48975;SDS011;34791;52.752;8.346;2023-02-28T06:05:00;28.20;;;17.03;;
48975;SDS011;34791;52.752;8.346;2023-02-28T06:07:26;26.63;;;17.13;;
48975;SDS011;34791;52.752;8.346;2023-02-28T06:09:51;29.77;;;17.60;;
48975;SDS011;34791;52.752;8.346;2023-02-28T06:12:17;29.57;;;18.03;;
48975;SDS011;34791;52.752;8.346;2023-02-28T06:14:42;29.97;;;17.40;;
48975;SDS011;34791;52.752;8.346;2023-02-28T06:17:08;26.40;;;16.10;;
48975;SDS011;34791;52.752;8.346;2023-02-28T06:19:36;29.07;;;15.90;;
48975;SDS011;34791;52.752;8.346;2023-02-28T06:22:03;24.57;;;15.87;;
48975;SDS011;34791;52.752;8.346;2023-02-28T06:24:29;30.13;;;15.53;;
48975;SDS011;34791;52.752;8.346;2023-02-28T06:26:56;24.97;;;15.40;;
48975;SDS011;34791;52.752;8.346;2023-02-28T06:29:23;33.73;;;17.03;;
48975;SDS011;34791;52.752;8.346;2023-02-28T06:31:49;24.90;;;15.47;;
48975;SDS011;34791;52.752;8.346;2023-02-28T06:34:15;25.20;;;15.50;;
48975;SDS011;34791;52.752;8.346;2023-02-28T06:36:40;28.57;;;15.33;;
48975;SDS011;34791;52.752;8.346;2023-02-28T06:39:06;27.90;;;15.00;;
48975;SDS011;34791;52.752;8.346;2023-02-28T06:41:33;22.67;;;13.83;;
48975;SDS011;34791;52.752;8.346;2023-02-28T06:44:03;26.20;;;14.60;;
48975;SDS011;34791;52.752;8.346;2023-02-28T06:46:39;21.83;;;13.83;;
48975;SDS011;34791;52.752;8.346;2023-02-28T06:49:05;21.77;;;13.07;;
48975;SDS011;34791;52.752;8.346;2023-02-28T06:51:33;22.67;;;12.70;;
48975;SDS011;34791;52.752;8.346;2023-02-28T06:53:59;18.63;;;11.00;;
48975;SDS011;34791;52.752;8.346;2023-02-28T06:56:25;18.23;;;10.53;;
48975;SDS011;34791;52.752;8.346;2023-02-28T06:58:50;15.27;;;10.10;;
48975;SDS011;34791;52.752;8.346;2023-02-28T07:01:18;16.97;;;9.13;;
48975;SDS011;34791;52.752;8.346;2023-02-28T07:03:44;17.33;;;7.80;;
48975;SDS011;34791;52.752;8.346;2023-02-28T07:06:10;12.97;;;6.83;;
48975;SDS011;34791;52.752;8.346;2023-02-28T07:08:36;11.97;;;6.30;;
48975;SDS011;34791;52.752;8.346;2023-02-28T07:11:02;13.10;;;5.73;;
48975;SDS011;34791;52.752;8.346;2023-02-28T07:13:28;11.77;;;6.47;;
48975;SDS011;34791;52.752;8.346;2023-02-28T07:15:57;11.93;;;6.10;;
48975;SDS011;34791;52.752;8.346;2023-02-28T07:18:24;9.37;;;6.27;;
48975;SDS011;34791;52.752;8.346;2023-02-28T07:20:50;10.07;;;6.30;;
48975;SDS011;34791;52.752;8.346;2023-02-28T07:23:16;11.13;;;6.03;;
48975;SDS011;34791;52.752;8.346;2023-02-28T07:25:41;9.73;;;5.60;;
48975;SDS011;34791;52.752;8.346;2023-02-28T07:28:07;12.73;;;6.33;;
48975;SDS011;34791;52.752;8.346;2023-02-28T07:30:32;10.00;;;6.13;;
48975;SDS011;34791;52.752;8.346;2023-02-28T07:32:57;12.03;;;5.97;;
48975;SDS011;34791;52.752;8.346;2023-02-28T07:35:23;13.70;;;6.30;;
48975;SDS011;34791;52.752;8.346;2023-02-28T07:37:49;12.37;;;5.87;;
48975;SDS011;34791;52.752;8.346;2023-02-28T07:40:14;11.87;;;6.17;;
48975;SDS011;34791;52.752;8.346;2023-02-28T07:42:41;13.57;;;6.10;;
48975;SDS011;34791;52.752;8.346;2023-02-28T07:45:07;10.93;;;6.43;;
48975;SDS011;34791;52.752;8.346;2023-02-28T07:47:36;13.37;;;7.00;;
48975;SDS011;34791;52.752;8.346;2023-02-28T07:50:06;16.70;;;6.30;;
48975;SDS011;34791;52.752;8.346;2023-02-28T07:52:34;9.83;;;5.83;;
48975;SDS011;34791;52.752;8.346;2023-02-28T07:54:59;15.87;;;6.30;;
48975;SDS011;34791;52.752;8.346;2023-02-28T07:57:24;12.33;;;6.23;;
48975;SDS011;34791;52.752;8.346;2023-02-28T07:59:50;10.87;;;5.63;;
48975;SDS011;34791;52.752;8.346;2023-02-28T08:02:16;9.13;;;5.40;;
48975;SDS011;34791;52.752;8.346;2023-02-28T08:04:42;9.00;;;5.23;;
48975;SDS011;34791;52.752;8.346;2023-02-28T08:07:08;8.48;;;4.78;;
48975;SDS011;34791;52.752;8.346;2023-02-28T08:09:38;7.22;;;4.50;;
48975;SDS011;34791;52.752;8.346;2023-02-28T08:12:04;7.97;;;4.50;;
48975;SDS011;34791;52.752;8.346;2023-02-28T08:14:29;8.10;;;4.20;;
48975;SDS011;34791;52.752;8.346;2023-02-28T08:16:55;7.38;;;4.03;;
48975;SDS011;34791;52.752;8.346;2023-02-28T08:19:20;9.30;;;4.45;;
48975;SDS011;34791;52.752;8.346;2023-02-28T08:21:45;10.10;;;4.45;;
48975;SDS011;34791;52.752;8.346;2023-02-28T08:24:11;9.00;;;4.38;;
48975;SDS011;34791;52.752;8.346;2023-02-28T08:26:36;7.53;;;4.30;;
48975;SDS011;34791;52.752;8.346;2023-02-28T08:29:02;8.40;;;4.20;;
48975;SDS011;34791;52.752;8.346;2023-02-28T08:31:27;7.18;;;3.83;;
48975;SDS011;34791;52.752;8.346;2023-02-28T08:33:52;9.45;;;4.03;;
48975;SDS011;34791;52.752;8.346;2023-02-28T08:36:20;7.38;;;3.92;;
48975;SDS011;34791;52.752;8.346;2023-02-28T08:38:46;7.90;;;3.97;;
48975;SDS011;34791;52.752;8.346;2023-02-28T08:41:11;7.10;;;4.22;;
48975;SDS011;34791;52.752;8.346;2023-02-28T08:43:38;7.00;;;4.05;;
48975;SDS011;34791;52.752;8.346;2023-02-28T08:46:04;6.20;;;3.63;;
48975;SDS011;34791;52.752;8.346;2023-02-28T08:48:31;6.50;;;3.10;;
48975;SDS011;34791;52.752;8.346;2023-02-28T08:51:02;5.30;;;2.50;;
48975;SDS011;34791;52.752;8.346;2023-02-28T08:53:34;5.47;;;2.70;;
48975;SDS011;34791;52.752;8.346;2023-02-28T08:56:01;4.93;;;2.30;;
48975;SDS011;34791;52.752;8.346;2023-02-28T08:58:28;5.07;;;2.40;;
48975;SDS011;34791;52.752;8.346;2023-02-28T09:00:54;5.22;;;2.30;;
48975;SDS011;34791;52.752;8.346;2023-02-28T09:03:20;4.03;;;2.08;;
48975;SDS011;34791;52.752;8.346;2023-02-28T09:05:56;5.05;;;2.58;;
48975;SDS011;34791;52.752;8.346;2023-02-28T09:08:24;4.95;;;2.20;;
48975;SDS011;34791;52.752;8.346;2023-02-28T09:10:51;5.63;;;2.50;;
48975;SDS011;34791;52.752;8.346;2023-02-28T09:13:17;3.77;;;1.70;;
48975;SDS011;34791;52.752;8.346;2023-02-28T09:15:43;3.33;;;1.40;;
48975;SDS011;34791;52.752;8.346;2023-02-28T09:18:08;2.50;;;1.20;;
48975;SDS011;34791;52.752;8.346;2023-02-28T09:20:34;3.10;;;1.40;;
48975;SDS011;34791;52.752;8.346;2023-02-28T09:23:01;5.10;;;1.43;;
48975;SDS011;34791;52.752;8.346;2023-02-28T09:25:27;4.07;;;1.50;;
48975;SDS011;34791;52.752;8.346;2023-02-28T09:27:52;4.30;;;1.70;;
48975;SDS011;34791;52.752;8.346;2023-02-28T09:30:18;3.70;;;2.00;;
48975;SDS011;34791;52.752;8.346;2023-02-28T09:32:43;3.90;;;1.90;;
48975;SDS011;34791;52.752;8.346;2023-02-28T09:35:16;4.47;;;1.83;;
48975;SDS011;34791;52.752;8.346;2023-02-28T09:37:46;3.13;;;1.60;;
48975;SDS011;34791;52.752;8.346;2023-02-28T09:40:13;3.57;;;1.70;;
48975;SDS011;34791;52.752;8.346;2023-02-28T09:42:42;4.57;;;1.70;;
48975;SDS011;34791;52.752;8.346;2023-02-28T09:45:18;4.57;;;1.60;;
48975;SDS011;34791;52.752;8.346;2023-02-28T09:47:49;4.97;;;1.67;;
48975;SDS011;34791;52.752;8.346;2023-02-28T09:52:51;7.70;;;1.97;;
48975;SDS011;34791;52.752;8.346;2023-02-28T09:57:54;4.07;;;1.70;;
48975;SDS011;34791;52.752;8.346;2023-02-28T10:00:24;4.37;;;1.93;;
48975;SDS011;34791;52.752;8.346;2023-02-28T10:08:19;4.20;;;2.00;;
48975;SDS011;34791;52.752;8.346;2023-02-28T10:11:01;3.67;;;1.90;;
48975;SDS011;34791;52.752;8.346;2023-02-28T10:16:35;3.07;;;1.33;;
48975;SDS011;34791;52.752;8.346;2023-02-28T10:19:11;3.13;;;1.40;;
48975;SDS011;34791;52.752;8.346;2023-02-28T10:21:39;2.40;;;1.20;;
48975;SDS011;34791;52.752;8.346;2023-02-28T10:27:00;2.53;;;1.23;;
48975;SDS011;34791;52.752;8.346;2023-02-28T10:29:50;3.17;;;1.40;;
48975;SDS011;34791;52.752;8.346;2023-02-28T10:32:18;3.38;;;1.38;;
48975;SDS011;34791;52.752;8.346;2023-02-28T10:34:51;3.23;;;1.30;;
48975;SDS011;34791;52.752;8.346;2023-02-28T10:37:19;2.33;;;1.20;;
48975;SDS011;34791;52.752;8.346;2023-02-28T10:39:45;2.73;;;1.43;;
48975;SDS011;34791;52.752;8.346;2023-02-28T10:42:24;3.77;;;1.47;;
48975;SDS011;34791;52.752;8.346;2023-02-28T10:47:51;4.87;;;1.60;;
48975;SDS011;34791;52.752;8.346;2023-02-28T10:56:14;3.63;;;1.50;;
48975;SDS011;34791;52.752;8.346;2023-02-28T10:58:45;6.67;;;1.67;;
48975;SDS011;34791;52.752;8.346;2023-02-28T11:01:15;3.33;;;1.37;;
48975;SDS011;34791;52.752;8.346;2023-02-28T11:04:01;2.40;;;1.10;;
48975;SDS011;34791;52.752;8.346;2023-02-28T11:06:31;2.87;;;1.40;;
48975;SDS011;34791;52.752;8.346;2023-02-28T11:09:00;3.30;;;1.40;;
48975;SDS011;34791;52.752;8.346;2023-02-28T11:11:29;3.30;;;1.40;;
48975;SDS011;34791;52.752;8.346;2023-02-28T11:14:06;3.13;;;1.50;;
48975;SDS011;34791;52.752;8.346;2023-02-28T11:16:44;3.83;;;1.50;;
48975;SDS011;34791;52.752;8.346;2023-02-28T11:19:16;2.63;;;1.20;;
48975;SDS011;34791;52.752;8.346;2023-02-28T11:21:51;3.80;;;1.50;;
48975;SDS011;34791;52.752;8.346;2023-02-28T11:26:51;3.85;;;1.70;;
48975;SDS011;34791;52.752;8.346;2023-02-28T11:29:23;3.40;;;1.60;;
48975;SDS011;34791;52.752;8.346;2023-02-28T11:34:44;3.33;;;1.10;;
48975;SDS011;34791;52.752;8.346;2023-02-28T11:37:20;6.07;;;1.20;;
48975;SDS011;34791;52.752;8.346;2023-02-28T11:42:37;2.70;;;1.30;;
48975;SDS011;34791;52.752;8.346;2023-02-28T11:50:50;2.87;;;1.20;;
48975;SDS011;34791;52.752;8.346;2023-02-28T11:56:10;1.73;;;0.87;;
48975;SDS011;34791;52.752;8.346;2023-02-28T11:58:44;2.70;;;1.23;;
48975;SDS011;34791;52.752;8.346;2023-02-28T12:03:50;4.30;;;1.70;;
48975;SDS011;34791;52.752;8.346;2023-02-28T12:06:45;3.20;;;1.33;;
48975;SDS011;34791;52.752;8.346;2023-02-28T12:12:19;4.23;;;1.53;;
48975;SDS011;34791;52.752;8.346;2023-02-28T12:20:36;3.13;;;1.23;;
48975;SDS011;34791;52.752;8.346;2023-02-28T12:25:38;4.03;;;1.40;;
48975;SDS011;34791;52.752;8.346;2023-02-28T12:28:46;2.53;;;1.30;;
48975;SDS011;34791;52.752;8.346;2023-02-28T12:31:26;5.87;;;1.63;;
48975;SDS011;34791;52.752;8.346;2023-02-28T12:34:03;2.80;;;1.30;;
48975;SDS011;34791;52.752;8.346;2023-02-28T12:36:45;3.67;;;1.40;;
48975;SDS011;34791;52.752;8.346;2023-02-28T12:39:21;3.20;;;1.40;;
48975;SDS011;34791;52.752;8.346;2023-02-28T12:42:01;2.13;;;1.10;;
48975;SDS011;34791;52.752;8.346;2023-02-28T12:44:34;3.03;;;1.50;;
48975;SDS011;34791;52.752;8.346;2023-02-28T12:49:36;6.23;;;1.90;;
48975;SDS011;34791;52.752;8.346;2023-02-28T12:52:07;3.40;;;1.50;;
48975;SDS011;34791;52.752;8.346;2023-02-28T12:57:25;3.87;;;1.50;;
48975;SDS011;34791;52.752;8.346;2023-02-28T13:00:01;2.67;;;1.20;;
48975;SDS011;34791;52.752;8.346;2023-02-28T13:02:51;2.67;;;1.20;;
48975;SDS011;34791;52.752;8.346;2023-02-28T13:11:24;3.10;;;1.47;;
48975;SDS011;34791;52.752;8.346;2023-02-28T13:13:57;2.57;;;1.27;;
48975;SDS011;34791;52.752;8.346;2023-02-28T13:16:23;3.00;;;1.40;;
48975;SDS011;34791;52.752;8.346;2023-02-28T13:18:49;3.43;;;1.40;;
48975;SDS011;34791;52.752;8.346;2023-02-28T13:21:25;2.47;;;1.33;;
48975;SDS011;34791;52.752;8.346;2023-02-28T13:26:23;1.93;;;0.90;;
48975;SDS011;34791;52.752;8.346;2023-02-28T13:34:30;5.27;;;1.60;;
48975;SDS011;34791;52.752;8.346;2023-02-28T13:39:46;3.00;;;1.47;;
48975;SDS011;34791;52.752;8.346;2023-02-28T14:11:56;2.85;;;1.50;;
48975;SDS011;34791;52.752;8.346;2023-02-28T14:15:23;3.63;;;1.50;;
48975;SDS011;34791;52.752;8.346;2023-02-28T14:17:12;3.57;;;1.70;;
48975;SDS011;34791;52.752;8.346;2023-02-28T14:19:41;3.23;;;1.40;;
48975;SDS011;34791;52.752;8.346;2023-02-28T14:27:49;4.10;;;1.77;;
48975;SDS011;34791;52.752;8.346;2023-02-28T14:30:40;3.87;;;1.90;;
48975;SDS011;34791;52.752;8.346;2023-02-28T14:36:06;2.77;;;1.50;;
48975;SDS011;34791;52.752;8.346;2023-02-28T14:41:24;3.57;;;1.70;;
48975;SDS011;34791;52.752;8.346;2023-02-28T14:44:02;3.13;;;1.70;;
48975;SDS011;34791;52.752;8.346;2023-02-28T14:46:39;4.23;;;1.93;;
48975;SDS011;34791;52.752;8.346;2023-02-28T14:49:07;4.47;;;2.10;;
48975;SDS011;34791;52.752;8.346;2023-02-28T14:51:42;3.60;;;1.63;;
48975;SDS011;34791;52.752;8.346;2023-02-28T14:54:12;3.23;;;1.60;;
48975;SDS011;34791;52.752;8.346;2023-02-28T14:56:49;4.05;;;1.67;;
48975;SDS011;34791;52.752;8.346;2023-02-28T15:02:52;2.93;;;1.37;;
48975;SDS011;34791;52.752;8.346;2023-02-28T15:07:42;3.67;;;1.70;;
48975;SDS011;34791;52.752;8.346;2023-02-28T15:13:06;3.40;;;1.80;;
48975;SDS011;34791;52.752;8.346;2023-02-28T15:15:44;7.53;;;3.83;;
48975;SDS011;34791;52.752;8.346;2023-02-28T15:18:21;4.13;;;1.90;;
48975;SDS011;34791;52.752;8.346;2023-02-28T15:20:51;3.87;;;2.10;;
48975;SDS011;34791;52.752;8.346;2023-02-28T15:23:20;5.13;;;2.07;;
48975;SDS011;34791;52.752;8.346;2023-02-28T15:25:48;5.47;;;2.00;;
48975;SDS011;34791;52.752;8.346;2023-02-28T15:28:18;5.30;;;2.10;;
48975;SDS011;34791;52.752;8.346;2023-02-28T15:30:53;6.57;;;2.70;;
48975;SDS011;34791;52.752;8.346;2023-02-28T15:33:30;6.27;;;2.23;;
48975;SDS011;34791;52.752;8.346;2023-02-28T15:36:16;4.57;;;2.20;;
48975;SDS011;34791;52.752;8.346;2023-02-28T15:38:46;6.80;;;2.20;;
48975;SDS011;34791;52.752;8.346;2023-02-28T15:41:21;3.90;;;2.10;;
48975;SDS011;34791;52.752;8.346;2023-02-28T15:46:44;3.30;;;1.50;;
48975;SDS011;34791;52.752;8.346;2023-02-28T15:49:21;3.83;;;2.03;;
48975;SDS011;34791;52.752;8.346;2023-02-28T15:51:48;5.20;;;1.77;;
48975;SDS011;34791;52.752;8.346;2023-02-28T15:54:19;5.10;;;2.33;;
48975;SDS011;34791;52.752;8.346;2023-02-28T15:56:53;4.20;;;2.13;;
48975;SDS011;34791;52.752;8.346;2023-02-28T15:59:23;6.73;;;2.83;;
48975;SDS011;34791;52.752;8.346;2023-02-28T16:07:30;6.43;;;2.20;;
48975;SDS011;34791;52.752;8.346;2023-02-28T16:09:56;4.63;;;2.00;;
48975;SDS011;34791;52.752;8.346;2023-02-28T16:12:24;8.27;;;2.23;;
48975;SDS011;34791;52.752;8.346;2023-02-28T16:14:55;3.43;;;1.73;;
48975;SDS011;34791;52.752;8.346;2023-02-28T16:17:28;4.77;;;1.90;;
48975;SDS011;34791;52.752;8.346;2023-02-28T16:19:56;4.50;;;1.93;;
48975;SDS011;34791;52.752;8.346;2023-02-28T16:22:23;5.03;;;1.70;;
48975;SDS011;34791;52.752;8.346;2023-02-28T16:24:51;4.00;;;1.70;;
48975;SDS011;34791;52.752;8.346;2023-02-28T16:27:26;9.50;;;4.33;;
48975;SDS011;34791;52.752;8.346;2023-02-28T16:30:00;27.50;;;9.77;;
48975;SDS011;34791;52.752;8.346;2023-02-28T16:32:26;9.13;;;4.90;;
48975;SDS011;34791;52.752;8.346;2023-02-28T16:34:51;5.73;;;2.70;;
48975;SDS011;34791;52.752;8.346;2023-02-28T16:37:17;4.43;;;1.93;;
48975;SDS011;34791;52.752;8.346;2023-02-28T16:39:43;5.97;;;2.80;;
48975;SDS011;34791;52.752;8.346;2023-02-28T16:42:18;6.27;;;2.80;;
48975;SDS011;34791;52.752;8.346;2023-02-28T16:44:49;6.13;;;2.77;;
48975;SDS011;34791;52.752;8.346;2023-02-28T16:47:15;9.57;;;3.80;;
48975;SDS011;34791;52.752;8.346;2023-02-28T16:49:41;5.77;;;2.57;;
48975;SDS011;34791;52.752;8.346;2023-02-28T16:52:08;7.87;;;3.03;;
48975;SDS011;34791;52.752;8.346;2023-02-28T16:54:34;5.20;;;2.30;;
48975;SDS011;34791;52.752;8.346;2023-02-28T16:57:06;4.87;;;2.10;;
48975;SDS011;34791;52.752;8.346;2023-02-28T16:59:48;5.75;;;2.60;;
48975;SDS011;34791;52.752;8.346;2023-02-28T17:02:18;6.33;;;2.30;;
48975;SDS011;34791;52.752;8.346;2023-02-28T17:04:44;11.57;;;2.57;;
48975;SDS011;34791;52.752;8.346;2023-02-28T17:07:11;6.73;;;2.13;;
48975;SDS011;34791;52.752;8.346;2023-02-28T17:09:38;7.23;;;2.10;;
48975;SDS011;34791;52.752;8.346;2023-02-28T17:12:05;4.60;;;2.03;;
48975;SDS011;34791;52.752;8.346;2023-02-28T17:14:31;6.57;;;2.20;;
48975;SDS011;34791;52.752;8.346;2023-02-28T17:17:00;10.27;;;2.30;;
48975;SDS011;34791;52.752;8.346;2023-02-28T17:19:29;4.93;;;2.17;;
48975;SDS011;34791;52.752;8.346;2023-02-28T17:21:54;18.83;;;3.00;;
48975;SDS011;34791;52.752;8.346;2023-02-28T17:24:23;7.70;;;2.83;;
48975;SDS011;34791;52.752;8.346;2023-02-28T17:26:52;5.13;;;2.30;;
48975;SDS011;34791;52.752;8.346;2023-02-28T17:29:21;5.57;;;2.50;;
48975;SDS011;34791;52.752;8.346;2023-02-28T17:31:47;6.53;;;2.60;;
48975;SDS011;34791;52.752;8.346;2023-02-28T17:34:13;6.00;;;2.90;;
48975;SDS011;34791;52.752;8.346;2023-02-28T17:36:46;7.87;;;3.50;;
48975;SDS011;34791;52.752;8.346;2023-02-28T17:39:13;7.37;;;3.80;;
48975;SDS011;34791;52.752;8.346;2023-02-28T17:41:40;5.73;;;3.30;;
48975;SDS011;34791;52.752;8.346;2023-02-28T17:44:07;10.33;;;3.27;;
48975;SDS011;34791;52.752;8.346;2023-02-28T17:46:33;12.03;;;3.20;;
48975;SDS011;34791;52.752;8.346;2023-02-28T17:48:59;9.93;;;3.70;;
48975;SDS011;34791;52.752;8.346;2023-02-28T17:51:24;8.97;;;5.00;;
48975;SDS011;34791;52.752;8.346;2023-02-28T17:53:51;8.70;;;4.57;;